sensor_id;sensor_type;location;lat;lon;timestamp;pressure;altitude;pressure_sealevel;temperature
12875;BMP180;6505;51.114;13.128;2023-03-29T00:01:26;100020.00;;;11.20
12875;BMP180;6505;51.114;13.128;2023-03-29T00:04:02;100012.00;;;11.20
12875;BMP180;6505;51.114;13.128;2023-03-29T00:06:30;100013.00;;;11.20
12875;BMP180;6505;51.114;13.128;2023-03-29T00:08:59;100018.00;;;11.20
12875;BMP180;6505;51.114;13.128;2023-03-29T00:11:31;100008.00;;;11.20
12875;BMP180;6505;51.114;13.128;2023-03-29T00:14:01;100005.00;;;11.20
12875;BMP180;6505;51.114;13.128;2023-03-29T00:16:29;99999.00;;;11.20
12875;BMP180;6505;51.114;13.128;2023-03-29T00:18:58;99991.00;;;11.20
12875;BMP180;6505;51.114;13.128;2023-03-29T00:21:28;99999.00;;;11.20
12875;BMP180;6505;51.114;13.128;2023-03-29T00:23:55;99989.00;;;11.20
12875;BMP180;6505;51.114;13.128;2023-03-29T00:26:26;99985.00;;;11.20
12875;BMP180;6505;51.114;13.128;2023-03-29T00:28:56;99985.00;;;11.20
12875;BMP180;6505;51.114;13.128;2023-03-29T00:31:28;99982.00;;;11.20
12875;BMP180;6505;51.114;13.128;2023-03-29T00:33:57;99985.00;;;11.20
12875;BMP180;6505;51.114;13.128;2023-03-29T00:36:28;99985.00;;;11.10
12875;BMP180;6505;51.114;13.128;2023-03-29T00:38:56;99989.00;;;11.20
12875;BMP180;6505;51.114;13.128;2023-03-29T00:41:26;99976.00;;;11.10
12875;BMP180;6505;51.114;13.128;2023-03-29T00:44:03;99989.00;;;11.10
12875;BMP180;6505;51.114;13.128;2023-03-29T00:46:37;99987.00;;;11.10
12875;BMP180;6505;51.114;13.128;2023-03-29T00:49:11;99985.00;;;11.10
12875;BMP180;6505;51.114;13.128;2023-03-29T00:51:40;99983.00;;;11.10
12875;BMP180;6505;51.114;13.128;2023-03-29T00:54:15;99975.00;;;11.10
12875;BMP180;6505;51.114;13.128;2023-03-29T00:56:51;99971.00;;;11.10
12875;BMP180;6505;51.114;13.128;2023-03-29T00:59:27;99966.00;;;11.10
12875;BMP180;6505;51.114;13.128;2023-03-29T01:02:03;99971.00;;;11.10
12875;BMP180;6505;51.114;13.128;2023-03-29T01:04:57;99966.00;;;11.00
12875;BMP180;6505;51.114;13.128;2023-03-29T01:07:32;99966.00;;;11.00
12875;BMP180;6505;51.114;13.128;2023-03-29T01:10:11;99954.00;;;11.00
12875;BMP180;6505;51.114;13.128;2023-03-29T01:12:47;99954.00;;;11.00
12875;BMP180;6505;51.114;13.128;2023-03-29T01:15:22;99954.00;;;11.00
12875;BMP180;6505;51.114;13.128;2023-03-29T01:17:55;99942.00;;;11.00
12875;BMP180;6505;51.114;13.128;2023-03-29T01:20:45;99942.00;;;11.00
12875;BMP180;6505;51.114;13.128;2023-03-29T01:23:40;99931.00;;;11.00
12875;BMP180;6505;51.114;13.128;2023-03-29T01:26:23;99926.00;;;11.00
12875;BMP180;6505;51.114;13.128;2023-03-29T01:29:05;99932.00;;;11.00
12875;BMP180;6505;51.114;13.128;2023-03-29T01:31:43;99929.00;;;11.00
12875;BMP180;6505;51.114;13.128;2023-03-29T01:34:31;99922.00;;;11.00
12875;BMP180;6505;51.114;13.128;2023-03-29T01:37:11;99927.00;;;11.00
12875;BMP180;6505;51.114;13.128;2023-03-29T01:39:44;99922.00;;;11.00
12875;BMP180;6505;51.114;13.128;2023-03-29T01:42:40;99917.00;;;11.00
12875;BMP180;6505;51.114;13.128;2023-03-29T01:45:27;99917.00;;;10.90
12875;BMP180;6505;51.114;13.128;2023-03-29T01:48:04;99912.00;;;11.00
12875;BMP180;6505;51.114;13.128;2023-03-29T01:50:45;99912.00;;;11.00
12875;BMP180;6505;51.114;13.128;2023-03-29T01:53:26;99904.00;;;10.90
12875;BMP180;6505;51.114;13.128;2023-03-29T01:56:04;99900.00;;;10.90
12875;BMP180;6505;51.114;13.128;2023-03-29T01:58:39;99902.00;;;10.90
12875;BMP180;6505;51.114;13.128;2023-03-29T02:01:20;99892.00;;;10.90
12875;BMP180;6505;51.114;13.128;2023-03-29T02:04:03;99876.00;;;10.90
12875;BMP180;6505;51.114;13.128;2023-03-29T02:06:40;99883.00;;;10.90
12875;BMP180;6505;51.114;13.128;2023-03-29T02:09:09;99881.00;;;11.00
12875;BMP180;6505;51.114;13.128;2023-03-29T02:11:40;99880.00;;;10.90
12875;BMP180;6505;51.114;13.128;2023-03-29T02:14:09;99882.00;;;11.00
12875;BMP180;6505;51.114;13.128;2023-03-29T02:16:38;99864.00;;;10.90
12875;BMP180;6505;51.114;13.128;2023-03-29T02:19:08;99864.00;;;10.90
12875;BMP180;6505;51.114;13.128;2023-03-29T02:21:52;99860.00;;;10.90
12875;BMP180;6505;51.114;13.128;2023-03-29T02:24:31;99857.00;;;10.90
12875;BMP180;6505;51.114;13.128;2023-03-29T02:27:02;99853.00;;;10.90
12875;BMP180;6505;51.114;13.128;2023-03-29T02:29:30;99853.00;;;11.00
12875;BMP180;6505;51.114;13.128;2023-03-29T02:32:09;99837.00;;;10.90
12875;BMP180;6505;51.114;13.128;2023-03-29T02:34:47;99837.00;;;10.90
12875;BMP180;6505;51.114;13.128;2023-03-29T02:37:19;99837.00;;;10.90
12875;BMP180;6505;51.114;13.128;2023-03-29T02:39:50;99826.00;;;10.90
12875;BMP180;6505;51.114;13.128;2023-03-29T02:42:28;99831.00;;;10.90
12875;BMP180;6505;51.114;13.128;2023-03-29T02:45:03;99818.00;;;10.90
12875;BMP180;6505;51.114;13.128;2023-03-29T02:47:40;99821.00;;;10.90
12875;BMP180;6505;51.114;13.128;2023-03-29T02:50:18;99825.00;;;10.90
12875;BMP180;6505;51.114;13.128;2023-03-29T02:52:57;99810.00;;;10.90
12875;BMP180;6505;51.114;13.128;2023-03-29T02:55:30;99818.00;;;10.90
12875;BMP180;6505;51.114;13.128;2023-03-29T02:58:02;99809.00;;;10.90
12875;BMP180;6505;51.114;13.128;2023-03-29T03:00:37;99803.00;;;10.90
12875;BMP180;6505;51.114;13.128;2023-03-29T03:03:11;99798.00;;;10.90
12875;BMP180;6505;51.114;13.128;2023-03-29T03:05:47;99799.00;;;10.90
12875;BMP180;6505;51.114;13.128;2023-03-29T03:08:17;99788.00;;;10.90
12875;BMP180;6505;51.114;13.128;2023-03-29T03:10:53;99794.00;;;10.90
12875;BMP180;6505;51.114;13.128;2023-03-29T03:13:24;99780.00;;;10.90
12875;BMP180;6505;51.114;13.128;2023-03-29T03:15:58;99788.00;;;10.90
12875;BMP180;6505;51.114;13.128;2023-03-29T03:18:29;99780.00;;;10.90
12875;BMP180;6505;51.114;13.128;2023-03-29T03:20:59;99776.00;;;10.90
12875;BMP180;6505;51.114;13.128;2023-03-29T03:23:29;99764.00;;;10.90
12875;BMP180;6505;51.114;13.128;2023-03-29T03:25:59;99780.00;;;10.90
12875;BMP180;6505;51.114;13.128;2023-03-29T03:28:31;99774.00;;;10.90
12875;BMP180;6505;51.114;13.128;2023-03-29T03:31:05;99764.00;;;10.90
12875;BMP180;6505;51.114;13.128;2023-03-29T03:33:53;99768.00;;;10.90
12875;BMP180;6505;51.114;13.128;2023-03-29T03:36:34;99777.00;;;10.90
12875;BMP180;6505;51.114;13.128;2023-03-29T03:39:03;99776.00;;;10.90
12875;BMP180;6505;51.114;13.128;2023-03-29T03:41:33;99774.00;;;10.90
12875;BMP180;6505;51.114;13.128;2023-03-29T03:44:04;99773.00;;;10.90
12875;BMP180;6505;51.114;13.128;2023-03-29T03:46:32;99772.00;;;10.90
12875;BMP180;6505;51.114;13.128;2023-03-29T03:49:04;99766.00;;;10.90
12875;BMP180;6505;51.114;13.128;2023-03-29T03:51:38;99773.00;;;11.00
12875;BMP180;6505;51.114;13.128;2023-03-29T03:54:09;99776.00;;;10.90
12875;BMP180;6505;51.114;13.128;2023-03-29T03:56:58;99774.00;;;10.90
12875;BMP180;6505;51.114;13.128;2023-03-29T03:59:35;99779.00;;;10.90
12875;BMP180;6505;51.114;13.128;2023-03-29T04:02:09;99774.00;;;10.90
12875;BMP180;6505;51.114;13.128;2023-03-29T04:04:39;99763.00;;;10.90
12875;BMP180;6505;51.114;13.128;2023-03-29T04:07:13;99764.00;;;10.90
12875;BMP180;6505;51.114;13.128;2023-03-29T04:10:04;99758.00;;;10.90
12875;BMP180;6505;51.114;13.128;2023-03-29T04:12:50;99757.00;;;10.90
12875;BMP180;6505;51.114;13.128;2023-03-29T04:15:24;99757.00;;;10.90
12875;BMP180;6505;51.114;13.128;2023-03-29T04:18:05;99751.00;;;10.90
12875;BMP180;6505;51.114;13.128;2023-03-29T04:20:43;99753.00;;;10.90
12875;BMP180;6505;51.114;13.128;2023-03-29T04:23:19;99756.00;;;10.90
12875;BMP180;6505;51.114;13.128;2023-03-29T04:25:47;99761.00;;;11.00
12875;BMP180;6505;51.114;13.128;2023-03-29T04:28:44;99759.00;;;10.90
12875;BMP180;6505;51.114;13.128;2023-03-29T04:31:34;99755.00;;;10.90
12875;BMP180;6505;51.114;13.128;2023-03-29T04:34:34;99749.00;;;10.90
12875;BMP180;6505;51.114;13.128;2023-03-29T04:37:05;99754.00;;;10.90
12875;BMP180;6505;51.114;13.128;2023-03-29T04:39:38;99748.00;;;10.90
12875;BMP180;6505;51.114;13.128;2023-03-29T04:42:07;99742.00;;;11.00
12875;BMP180;6505;51.114;13.128;2023-03-29T04:44:39;99742.00;;;10.90
12875;BMP180;6505;51.114;13.128;2023-03-29T04:47:13;99742.00;;;11.00
12875;BMP180;6505;51.114;13.128;2023-03-29T04:49:56;99745.00;;;10.90
12875;BMP180;6505;51.114;13.128;2023-03-29T04:52:45;99741.00;;;11.00
12875;BMP180;6505;51.114;13.128;2023-03-29T04:55:17;99736.00;;;11.00
12875;BMP180;6505;51.114;13.128;2023-03-29T04:57:58;99743.00;;;11.00
12875;BMP180;6505;51.114;13.128;2023-03-29T05:00:30;99742.00;;;11.00
12875;BMP180;6505;51.114;13.128;2023-03-29T05:03:20;99748.00;;;11.00
12875;BMP180;6505;51.114;13.128;2023-03-29T05:06:06;99739.00;;;11.00
12875;BMP180;6505;51.114;13.128;2023-03-29T05:08:39;99744.00;;;11.00
12875;BMP180;6505;51.114;13.128;2023-03-29T05:11:22;99739.00;;;11.00
12875;BMP180;6505;51.114;13.128;2023-03-29T05:13:54;99742.00;;;11.00
12875;BMP180;6505;51.114;13.128;2023-03-29T05:16:28;99742.00;;;11.00
12875;BMP180;6505;51.114;13.128;2023-03-29T05:18:59;99744.00;;;11.00
12875;BMP180;6505;51.114;13.128;2023-03-29T05:21:33;99744.00;;;11.00
12875;BMP180;6505;51.114;13.128;2023-03-29T05:24:05;99742.00;;;11.00
12875;BMP180;6505;51.114;13.128;2023-03-29T05:27:02;99738.00;;;11.00
12875;BMP180;6505;51.114;13.128;2023-03-29T05:29:33;99738.00;;;11.00
12875;BMP180;6505;51.114;13.128;2023-03-29T05:32:19;99738.00;;;11.00
12875;BMP180;6505;51.114;13.128;2023-03-29T05:34:48;99736.00;;;11.00
12875;BMP180;6505;51.114;13.128;2023-03-29T05:37:20;99742.00;;;11.00
12875;BMP180;6505;51.114;13.128;2023-03-29T05:39:56;99729.00;;;11.10
12875;BMP180;6505;51.114;13.128;2023-03-29T05:42:35;99738.00;;;11.10
12875;BMP180;6505;51.114;13.128;2023-03-29T05:45:09;99726.00;;;11.10
12875;BMP180;6505;51.114;13.128;2023-03-29T05:47:39;99730.00;;;11.10
12875;BMP180;6505;51.114;13.128;2023-03-29T05:50:10;99729.00;;;11.10
12875;BMP180;6505;51.114;13.128;2023-03-29T05:52:38;99730.00;;;11.10
12875;BMP180;6505;51.114;13.128;2023-03-29T05:55:11;99726.00;;;11.10
12875;BMP180;6505;51.114;13.128;2023-03-29T05:57:41;99729.00;;;11.10
12875;BMP180;6505;51.114;13.128;2023-03-29T06:00:15;99728.00;;;11.10
12875;BMP180;6505;51.114;13.128;2023-03-29T06:03:00;99725.00;;;11.10
12875;BMP180;6505;51.114;13.128;2023-03-29T06:05:44;99720.00;;;11.10
12875;BMP180;6505;51.114;13.128;2023-03-29T06:08:18;99711.00;;;11.10
12875;BMP180;6505;51.114;13.128;2023-03-29T06:11:06;99725.00;;;11.10
12875;BMP180;6505;51.114;13.128;2023-03-29T06:14:02;99723.00;;;11.20
12875;BMP180;6505;51.114;13.128;2023-03-29T06:16:34;99722.00;;;11.20
12875;BMP180;6505;51.114;13.128;2023-03-29T06:19:08;99723.00;;;11.20
12875;BMP180;6505;51.114;13.128;2023-03-29T06:21:38;99723.00;;;11.20
12875;BMP180;6505;51.114;13.128;2023-03-29T06:24:10;99722.00;;;11.20
12875;BMP180;6505;51.114;13.128;2023-03-29T06:26:46;99716.00;;;11.20
12875;BMP180;6505;51.114;13.128;2023-03-29T06:29:15;99722.00;;;11.20
12875;BMP180;6505;51.114;13.128;2023-03-29T06:31:45;99716.00;;;11.20
12875;BMP180;6505;51.114;13.128;2023-03-29T06:34:34;99713.00;;;11.20
12875;BMP180;6505;51.114;13.128;2023-03-29T06:37:39;99718.00;;;11.20
12875;BMP180;6505;51.114;13.128;2023-03-29T06:40:20;99710.00;;;11.20
12875;BMP180;6505;51.114;13.128;2023-03-29T06:42:57;99709.00;;;11.20
12875;BMP180;6505;51.114;13.128;2023-03-29T06:45:27;99708.00;;;11.30
12875;BMP180;6505;51.114;13.128;2023-03-29T06:48:00;99707.00;;;11.30
12875;BMP180;6505;51.114;13.128;2023-03-29T06:50:30;99711.00;;;11.30
12875;BMP180;6505;51.114;13.128;2023-03-29T06:53:13;99718.00;;;11.30
12875;BMP180;6505;51.114;13.128;2023-03-29T06:55:52;99713.00;;;11.30
12875;BMP180;6505;51.114;13.128;2023-03-29T06:58:40;99723.00;;;11.30
12875;BMP180;6505;51.114;13.128;2023-03-29T07:01:24;99719.00;;;11.30
12875;BMP180;6505;51.114;13.128;2023-03-29T07:04:02;99721.00;;;11.40
12875;BMP180;6505;51.114;13.128;2023-03-29T07:07:00;99722.00;;;11.40
12875;BMP180;6505;51.114;13.128;2023-03-29T07:09:33;99722.00;;;11.40
12875;BMP180;6505;51.114;13.128;2023-03-29T07:12:25;99719.00;;;11.40
12875;BMP180;6505;51.114;13.128;2023-03-29T07:15:01;99715.00;;;11.40
12875;BMP180;6505;51.114;13.128;2023-03-29T07:18:11;99715.00;;;11.40
12875;BMP180;6505;51.114;13.128;2023-03-29T07:20:39;99713.00;;;11.40
12875;BMP180;6505;51.114;13.128;2023-03-29T07:23:10;99712.00;;;11.40
12875;BMP180;6505;51.114;13.128;2023-03-29T07:25:38;99724.00;;;11.50
12875;BMP180;6505;51.114;13.128;2023-03-29T07:28:12;99722.00;;;11.50
12875;BMP180;6505;51.114;13.128;2023-03-29T07:30:44;99737.00;;;11.50
12875;BMP180;6505;51.114;13.128;2023-03-29T07:33:19;99738.00;;;11.50
12875;BMP180;6505;51.114;13.128;2023-03-29T07:36:05;99735.00;;;11.50
12875;BMP180;6505;51.114;13.128;2023-03-29T07:38:36;99721.00;;;11.50
12875;BMP180;6505;51.114;13.128;2023-03-29T07:41:11;99725.00;;;11.50
12875;BMP180;6505;51.114;13.128;2023-03-29T07:43:46;99719.00;;;11.50
12875;BMP180;6505;51.114;13.128;2023-03-29T07:46:22;99720.00;;;11.50
12875;BMP180;6505;51.114;13.128;2023-03-29T07:48:50;99721.00;;;11.60
12875;BMP180;6505;51.114;13.128;2023-03-29T07:51:20;99721.00;;;11.60
12875;BMP180;6505;51.114;13.128;2023-03-29T07:54:01;99720.00;;;11.60
12875;BMP180;6505;51.114;13.128;2023-03-29T07:56:51;99714.00;;;11.60
12875;BMP180;6505;51.114;13.128;2023-03-29T07:59:30;99716.00;;;11.60
12875;BMP180;6505;51.114;13.128;2023-03-29T08:02:15;99715.00;;;11.60
12875;BMP180;6505;51.114;13.128;2023-03-29T08:04:56;99711.00;;;11.60
12875;BMP180;6505;51.114;13.128;2023-03-29T08:07:49;99722.00;;;11.70
12875;BMP180;6505;51.114;13.128;2023-03-29T08:10:42;99706.00;;;11.70
12875;BMP180;6505;51.114;13.128;2023-03-29T08:13:21;99721.00;;;11.70
12875;BMP180;6505;51.114;13.128;2023-03-29T08:16:21;99718.00;;;11.70
12875;BMP180;6505;51.114;13.128;2023-03-29T08:19:00;99719.00;;;11.70
12875;BMP180;6505;51.114;13.128;2023-03-29T08:21:44;99715.00;;;11.70
12875;BMP180;6505;51.114;13.128;2023-03-29T08:24:16;99721.00;;;11.80
12875;BMP180;6505;51.114;13.128;2023-03-29T08:26:51;99711.00;;;11.80
12875;BMP180;6505;51.114;13.128;2023-03-29T08:29:20;99705.00;;;11.80
12875;BMP180;6505;51.114;13.128;2023-03-29T08:31:57;99702.00;;;11.80
12875;BMP180;6505;51.114;13.128;2023-03-29T08:34:28;99703.00;;;11.90
12875;BMP180;6505;51.114;13.128;2023-03-29T08:37:15;99703.00;;;11.90
12875;BMP180;6505;51.114;13.128;2023-03-29T08:39:45;99706.00;;;12.00
12875;BMP180;6505;51.114;13.128;2023-03-29T08:42:59;99705.00;;;11.90
12875;BMP180;6505;51.114;13.128;2023-03-29T08:46:02;99696.00;;;12.00
12875;BMP180;6505;51.114;13.128;2023-03-29T08:48:40;99686.00;;;12.00
12875;BMP180;6505;51.114;13.128;2023-03-29T08:51:23;99686.00;;;12.00
12875;BMP180;6505;51.114;13.128;2023-03-29T08:54:01;99686.00;;;12.10
12875;BMP180;6505;51.114;13.128;2023-03-29T08:57:13;99675.00;;;12.00
12875;BMP180;6505;51.114;13.128;2023-03-29T08:59:54;99679.00;;;12.10
12875;BMP180;6505;51.114;13.128;2023-03-29T09:02:29;99677.00;;;12.10
12875;BMP180;6505;51.114;13.128;2023-03-29T09:05:17;99675.00;;;12.10
12875;BMP180;6505;51.114;13.128;2023-03-29T09:08:00;99679.00;;;12.20
12875;BMP180;6505;51.114;13.128;2023-03-29T09:10:39;99666.00;;;12.20
12875;BMP180;6505;51.114;13.128;2023-03-29T09:13:30;99686.00;;;12.20
12875;BMP180;6505;51.114;13.128;2023-03-29T09:16:09;99675.00;;;12.30
12875;BMP180;6505;51.114;13.128;2023-03-29T09:18:58;99678.00;;;12.30
12875;BMP180;6505;51.114;13.128;2023-03-29T09:21:40;99674.00;;;12.30
12875;BMP180;6505;51.114;13.128;2023-03-29T09:24:40;99674.00;;;12.30
12875;BMP180;6505;51.114;13.128;2023-03-29T09:27:26;99673.00;;;12.40
12875;BMP180;6505;51.114;13.128;2023-03-29T09:30:17;99665.00;;;12.40
12875;BMP180;6505;51.114;13.128;2023-03-29T09:33:02;99670.00;;;12.40
12875;BMP180;6505;51.114;13.128;2023-03-29T09:35:58;99678.00;;;12.40
12875;BMP180;6505;51.114;13.128;2023-03-29T09:38:29;99664.00;;;12.50
12875;BMP180;6505;51.114;13.128;2023-03-29T09:41:17;99673.00;;;12.50
12875;BMP180;6505;51.114;13.128;2023-03-29T09:43:51;99666.00;;;12.60
12875;BMP180;6505;51.114;13.128;2023-03-29T09:46:34;99661.00;;;12.60
12875;BMP180;6505;51.114;13.128;2023-03-29T09:49:12;99661.00;;;12.60
12875;BMP180;6505;51.114;13.128;2023-03-29T09:51:48;99659.00;;;12.70
12875;BMP180;6505;51.114;13.128;2023-03-29T09:54:20;99655.00;;;12.70
12875;BMP180;6505;51.114;13.128;2023-03-29T09:57:15;99650.00;;;12.70
12875;BMP180;6505;51.114;13.128;2023-03-29T09:59:51;99655.00;;;12.70
12875;BMP180;6505;51.114;13.128;2023-03-29T10:02:20;99651.00;;;12.80
12875;BMP180;6505;51.114;13.128;2023-03-29T10:04:54;99646.00;;;12.80
12875;BMP180;6505;51.114;13.128;2023-03-29T10:07:38;99650.00;;;12.80
12875;BMP180;6505;51.114;13.128;2023-03-29T10:10:21;99645.00;;;12.90
12875;BMP180;6505;51.114;13.128;2023-03-29T10:13:02;99649.00;;;12.90
12875;BMP180;6505;51.114;13.128;2023-03-29T10:15:33;99650.00;;;13.00
12875;BMP180;6505;51.114;13.128;2023-03-29T10:18:09;99649.00;;;13.00
12875;BMP180;6505;51.114;13.128;2023-03-29T10:20:39;99641.00;;;13.00
12875;BMP180;6505;51.114;13.128;2023-03-29T10:23:17;99643.00;;;13.00
12875;BMP180;6505;51.114;13.128;2023-03-29T10:25:45;99636.00;;;13.10
12875;BMP180;6505;51.114;13.128;2023-03-29T10:28:17;99633.00;;;13.10
12875;BMP180;6505;51.114;13.128;2023-03-29T10:30:57;99627.00;;;13.10
12875;BMP180;6505;51.114;13.128;2023-03-29T10:33:32;99631.00;;;13.20
12875;BMP180;6505;51.114;13.128;2023-03-29T10:36:06;99628.00;;;13.20
12875;BMP180;6505;51.114;13.128;2023-03-29T10:38:36;99638.00;;;13.20
12875;BMP180;6505;51.114;13.128;2023-03-29T10:41:08;99628.00;;;13.30
12875;BMP180;6505;51.114;13.128;2023-03-29T10:43:44;99636.00;;;13.30
12875;BMP180;6505;51.114;13.128;2023-03-29T10:46:20;99632.00;;;13.30
12875;BMP180;6505;51.114;13.128;2023-03-29T10:48:56;99621.00;;;13.30
12875;BMP180;6505;51.114;13.128;2023-03-29T10:51:28;99615.00;;;13.30
12875;BMP180;6505;51.114;13.128;2023-03-29T10:54:00;99608.00;;;13.40
12875;BMP180;6505;51.114;13.128;2023-03-29T10:56:37;99598.00;;;13.40
12875;BMP180;6505;51.114;13.128;2023-03-29T10:59:28;99593.00;;;13.40
12875;BMP180;6505;51.114;13.128;2023-03-29T11:02:43;99601.00;;;13.40
12875;BMP180;6505;51.114;13.128;2023-03-29T11:05:32;99591.00;;;13.50
12875;BMP180;6505;51.114;13.128;2023-03-29T11:08:45;99578.00;;;13.50
12875;BMP180;6505;51.114;13.128;2023-03-29T11:12:04;99593.00;;;13.50
12875;BMP180;6505;51.114;13.128;2023-03-29T11:14:59;99574.00;;;13.50
12875;BMP180;6505;51.114;13.128;2023-03-29T11:17:52;99583.00;;;13.60
12875;BMP180;6505;51.114;13.128;2023-03-29T11:20:33;99575.00;;;13.60
12875;BMP180;6505;51.114;13.128;2023-03-29T11:23:31;99579.00;;;13.60
12875;BMP180;6505;51.114;13.128;2023-03-29T11:26:14;99575.00;;;13.70
12875;BMP180;6505;51.114;13.128;2023-03-29T11:28:49;99576.00;;;13.70
12875;BMP180;6505;51.114;13.128;2023-03-29T11:31:34;99566.00;;;13.80
12875;BMP180;6505;51.114;13.128;2023-03-29T11:34:24;99571.00;;;13.80
12875;BMP180;6505;51.114;13.128;2023-03-29T11:37:03;99564.00;;;13.80
12875;BMP180;6505;51.114;13.128;2023-03-29T11:39:44;99557.00;;;13.90
12875;BMP180;6505;51.114;13.128;2023-03-29T11:42:30;99552.00;;;13.90
12875;BMP180;6505;51.114;13.128;2023-03-29T11:45:05;99553.00;;;13.90
12875;BMP180;6505;51.114;13.128;2023-03-29T11:47:44;99551.00;;;14.00
12875;BMP180;6505;51.114;13.128;2023-03-29T11:50:20;99567.00;;;14.00
12875;BMP180;6505;51.114;13.128;2023-03-29T11:53:06;99563.00;;;14.00
12875;BMP180;6505;51.114;13.128;2023-03-29T11:55:38;99555.00;;;14.10
12875;BMP180;6505;51.114;13.128;2023-03-29T11:58:16;99556.00;;;14.10
12875;BMP180;6505;51.114;13.128;2023-03-29T12:00:52;99554.00;;;14.10
12875;BMP180;6505;51.114;13.128;2023-03-29T12:03:40;99556.00;;;14.20
12875;BMP180;6505;51.114;13.128;2023-03-29T12:06:20;99553.00;;;14.20
12875;BMP180;6505;51.114;13.128;2023-03-29T12:08:56;99545.00;;;14.20
12875;BMP180;6505;51.114;13.128;2023-03-29T12:11:33;99542.00;;;14.20
12875;BMP180;6505;51.114;13.128;2023-03-29T12:14:09;99541.00;;;14.30
12875;BMP180;6505;51.114;13.128;2023-03-29T12:16:45;99532.00;;;14.30
12875;BMP180;6505;51.114;13.128;2023-03-29T12:19:25;99530.00;;;14.30
12875;BMP180;6505;51.114;13.128;2023-03-29T12:22:09;99534.00;;;14.40
12875;BMP180;6505;51.114;13.128;2023-03-29T12:24:47;99537.00;;;14.40
12875;BMP180;6505;51.114;13.128;2023-03-29T12:27:29;99535.00;;;14.40
12875;BMP180;6505;51.114;13.128;2023-03-29T12:30:34;99534.00;;;14.40
12875;BMP180;6505;51.114;13.128;2023-03-29T12:37:32;99527.00;;;14.50
12875;BMP180;6505;51.114;13.128;2023-03-29T12:40:25;99523.00;;;14.50
12875;BMP180;6505;51.114;13.128;2023-03-29T12:43:23;99518.00;;;14.50
12875;BMP180;6505;51.114;13.128;2023-03-29T12:46:23;99513.00;;;14.60
12875;BMP180;6505;51.114;13.128;2023-03-29T12:49:08;99505.00;;;14.60
12875;BMP180;6505;51.114;13.128;2023-03-29T12:51:41;99506.00;;;14.60
12875;BMP180;6505;51.114;13.128;2023-03-29T12:54:15;99508.00;;;14.70
12875;BMP180;6505;51.114;13.128;2023-03-29T12:57:18;99505.00;;;14.70
12875;BMP180;6505;51.114;13.128;2023-03-29T12:59:49;99502.00;;;14.80
12875;BMP180;6505;51.114;13.128;2023-03-29T13:02:35;99512.00;;;14.70
12875;BMP180;6505;51.114;13.128;2023-03-29T13:05:32;99491.00;;;14.80
12875;BMP180;6505;51.114;13.128;2023-03-29T13:08:26;99480.00;;;14.80
12875;BMP180;6505;51.114;13.128;2023-03-29T13:10:58;99478.00;;;14.80
12875;BMP180;6505;51.114;13.128;2023-03-29T13:13:29;99474.00;;;14.90
12875;BMP180;6505;51.114;13.128;2023-03-29T13:16:16;99468.00;;;14.90
12875;BMP180;6505;51.114;13.128;2023-03-29T13:19:02;99491.00;;;14.90
12875;BMP180;6505;51.114;13.128;2023-03-29T13:21:46;99477.00;;;14.90
12875;BMP180;6505;51.114;13.128;2023-03-29T13:24:36;99489.00;;;15.00
12875;BMP180;6505;51.114;13.128;2023-03-29T13:27:20;99483.00;;;15.00
12875;BMP180;6505;51.114;13.128;2023-03-29T13:30:05;99491.00;;;15.00
12875;BMP180;6505;51.114;13.128;2023-03-29T13:32:54;99484.00;;;15.10
12875;BMP180;6505;51.114;13.128;2023-03-29T13:35:39;99484.00;;;15.10
12875;BMP180;6505;51.114;13.128;2023-03-29T13:38:20;99476.00;;;15.10
12875;BMP180;6505;51.114;13.128;2023-03-29T13:41:01;99466.00;;;15.10
12875;BMP180;6505;51.114;13.128;2023-03-29T13:43:52;99456.00;;;15.10
12875;BMP180;6505;51.114;13.128;2023-03-29T13:46:41;99468.00;;;15.20
12875;BMP180;6505;51.114;13.128;2023-03-29T13:49:18;99465.00;;;15.20
12875;BMP180;6505;51.114;13.128;2023-03-29T13:52:05;99464.00;;;15.20
12875;BMP180;6505;51.114;13.128;2023-03-29T13:54:43;99466.00;;;15.20
12875;BMP180;6505;51.114;13.128;2023-03-29T13:57:16;99462.00;;;15.30
12875;BMP180;6505;51.114;13.128;2023-03-29T13:59:59;99449.00;;;15.30
12875;BMP180;6505;51.114;13.128;2023-03-29T14:02:43;99452.00;;;15.30
12875;BMP180;6505;51.114;13.128;2023-03-29T14:05:18;99451.00;;;15.30
12875;BMP180;6505;51.114;13.128;2023-03-29T14:07:53;99448.00;;;15.40
12875;BMP180;6505;51.114;13.128;2023-03-29T14:10:25;99453.00;;;15.40
12875;BMP180;6505;51.114;13.128;2023-03-29T14:13:02;99445.00;;;15.40
12875;BMP180;6505;51.114;13.128;2023-03-29T14:15:45;99444.00;;;15.40
12875;BMP180;6505;51.114;13.128;2023-03-29T14:18:20;99449.00;;;15.50
12875;BMP180;6505;51.114;13.128;2023-03-29T14:20:53;99451.00;;;15.50
12875;BMP180;6505;51.114;13.128;2023-03-29T14:23:42;99444.00;;;15.50
12875;BMP180;6505;51.114;13.128;2023-03-29T14:26:15;99443.00;;;15.50
12875;BMP180;6505;51.114;13.128;2023-03-29T14:28:49;99449.00;;;15.50
12875;BMP180;6505;51.114;13.128;2023-03-29T14:31:33;99438.00;;;15.50
12875;BMP180;6505;51.114;13.128;2023-03-29T14:34:06;99449.00;;;15.60
12875;BMP180;6505;51.114;13.128;2023-03-29T14:36:39;99450.00;;;15.60
12875;BMP180;6505;51.114;13.128;2023-03-29T14:39:15;99434.00;;;15.50
12875;BMP180;6505;51.114;13.128;2023-03-29T14:41:52;99445.00;;;15.60
12875;BMP180;6505;51.114;13.128;2023-03-29T14:44:28;99444.00;;;15.60
12875;BMP180;6505;51.114;13.128;2023-03-29T14:47:22;99444.00;;;15.60
12875;BMP180;6505;51.114;13.128;2023-03-29T14:49:52;99438.00;;;15.70
12875;BMP180;6505;51.114;13.128;2023-03-29T14:52:25;99422.00;;;15.70
12875;BMP180;6505;51.114;13.128;2023-03-29T14:55:00;99433.00;;;15.70
12875;BMP180;6505;51.114;13.128;2023-03-29T14:57:34;99436.00;;;15.70
12875;BMP180;6505;51.114;13.128;2023-03-29T15:00:22;99439.00;;;15.70
12875;BMP180;6505;51.114;13.128;2023-03-29T15:03:00;99433.00;;;15.70
12875;BMP180;6505;51.114;13.128;2023-03-29T15:05:36;99431.00;;;15.80
12875;BMP180;6505;51.114;13.128;2023-03-29T15:08:07;99430.00;;;15.80
12875;BMP180;6505;51.114;13.128;2023-03-29T15:10:38;99420.00;;;15.80
12875;BMP180;6505;51.114;13.128;2023-03-29T15:13:18;99419.00;;;15.80
12875;BMP180;6505;51.114;13.128;2023-03-29T15:15:56;99414.00;;;15.80
12875;BMP180;6505;51.114;13.128;2023-03-29T15:18:37;99405.00;;;15.90
12875;BMP180;6505;51.114;13.128;2023-03-29T15:21:08;99395.00;;;15.90